createdAt,value
2022-12-22T00:00:32.145Z,81.27
2022-12-22T00:06:19.160Z,80.54
2022-12-22T00:11:58.483Z,80.67
2022-12-22T00:17:48.258Z,80.15
2022-12-22T00:23:30.394Z,80.08
2022-12-22T00:29:09.353Z,80.96
2022-12-22T00:34:51.687Z,79.66
2022-12-22T00:40:40.145Z,80.25
2022-12-22T00:46:22.619Z,79.95
2022-12-22T00:52:01.680Z,80.33
2022-12-22T00:57:44.789Z,79.44
2022-12-22T01:03:23.965Z,80.27
2022-12-22T01:09:03.997Z,79.82
2022-12-22T01:14:43.163Z,80.24
2022-12-22T01:20:22.837Z,79.96
2022-12-22T01:26:02.663Z,79.66
2022-12-22T01:31:50.840Z,79.65
2022-12-22T01:37:30.244Z,79.31
2022-12-22T01:43:09.502Z,79.88
2022-12-22T01:48:50.717Z,79.11
2022-12-22T01:54:32.108Z,79.63
2022-12-22T02:00:11.449Z,79.26
2022-12-22T02:05:57.770Z,79.36
2022-12-22T02:11:37.180Z,79.87
2022-12-22T02:18:06.420Z,78.95
2022-12-22T02:24:25.544Z,79.24
2022-12-22T02:30:15.425Z,79.19
2022-12-22T02:36:32.305Z,79.90
2022-12-22T02:42:30.965Z,79.69
2022-12-22T02:48:23.560Z,79.47
2022-12-22T02:54:03.273Z,79.73
2022-12-22T02:59:42.352Z,80.10
2022-12-22T03:05:21.659Z,79.34
2022-12-22T03:11:00.728Z,79.43
2022-12-22T03:16:40.167Z,79.42
2022-12-22T03:22:19.210Z,78.95
2022-12-22T03:27:39.895Z,79.75
2022-12-22T03:33:00.760Z,79.51
2022-12-22T03:38:21.725Z,79.81
2022-12-22T03:44:00.978Z,80.02
2022-12-22T03:49:22.981Z,79.37
2022-12-22T03:54:45.036Z,80.33
2022-12-22T04:00:06.462Z,79.77
2022-12-22T04:05:32.744Z,80.01
2022-12-22T04:11:11.892Z,79.56
2022-12-22T04:16:33.238Z,78.23
2022-12-22T04:21:54.535Z,79.06
2022-12-22T04:27:15.502Z,79.04
2022-12-22T04:32:36.087Z,78.47
2022-12-22T04:37:56.899Z,78.75
2022-12-22T04:43:17.461Z,78.62
2022-12-22T04:48:38.217Z,78.78
2022-12-22T04:53:58.815Z,78.87
2022-12-22T04:59:19.596Z,78.64
2022-12-22T05:04:40.198Z,79.15
2022-12-22T05:10:00.865Z,78.81
2022-12-22T05:15:26.654Z,79.45
2022-12-22T05:20:47.342Z,80.32
2022-12-22T05:26:08.781Z,79.83
2022-12-22T05:31:29.599Z,79.64
2022-12-22T05:36:59.723Z,80.32
2022-12-22T05:42:35.930Z,80.41
2022-12-22T05:47:57.265Z,79.83
2022-12-22T05:53:17.999Z,80.23
2022-12-22T05:58:39.503Z,80.50
2022-12-22T06:04:00.889Z,80.08
2022-12-22T06:09:21.959Z,80.33
2022-12-22T06:14:42.650Z,83.57
2022-12-22T06:20:04.253Z,80.59
2022-12-22T06:25:25.200Z,79.62
2022-12-22T06:30:46.020Z,80.41
2022-12-22T06:36:08.378Z,80.63
2022-12-22T06:41:48.013Z,80.15
2022-12-22T06:47:08.648Z,79.77
2022-12-22T06:52:29.248Z,79.81
2022-12-22T06:57:49.905Z,80.05
2022-12-22T07:03:10.902Z,80.31
2022-12-22T07:08:31.936Z,79.85
2022-12-22T07:13:52.833Z,80.19
2022-12-22T07:19:13.926Z,80.71
2022-12-22T07:24:34.996Z,80.55
2022-12-22T07:29:55.585Z,79.87
2022-12-22T07:35:16.311Z,80.41
2022-12-22T07:40:41.339Z,80.19
2022-12-22T07:46:02.519Z,80.67
2022-12-22T07:51:23.342Z,80.43
2022-12-22T07:56:45.829Z,80.44
2022-12-22T08:02:10.141Z,80.85
2022-12-22T08:07:32.708Z,82.96
2022-12-22T08:12:53.253Z,81.44
2022-12-22T08:18:13.916Z,80.98
2022-12-22T08:23:35.111Z,80.66
2022-12-22T08:29:03.484Z,80.58
2022-12-22T08:34:24.594Z,81.38
2022-12-22T08:39:50.796Z,80.70
2022-12-22T08:45:11.637Z,81.16
2022-12-22T08:50:32.384Z,81.03
2022-12-22T08:55:54.588Z,80.83
2022-12-22T09:01:20.294Z,80.83
2022-12-22T09:06:41.549Z,80.89
2022-12-22T09:12:03.016Z,80.95
2022-12-22T09:17:23.662Z,80.54
2022-12-22T09:22:44.290Z,81.37
2022-12-22T09:28:07.460Z,80.63
2022-12-22T09:33:28.228Z,80.67
2022-12-22T09:38:49.297Z,80.65
2022-12-22T09:44:33.854Z,80.80
2022-12-22T09:49:57.436Z,80.69
2022-12-22T09:55:24.315Z,80.74
2022-12-22T10:00:50.640Z,80.75
2022-12-22T10:06:19.689Z,80.64
2022-12-22T10:11:50.772Z,80.87
2022-12-22T10:17:32.294Z,80.51
2022-12-22T10:23:12.518Z,80.85
2022-12-22T10:28:59.556Z,81.01
2022-12-22T10:34:20.955Z,80.84
2022-12-22T10:39:41.746Z,81.27
2022-12-22T10:45:02.534Z,81.28
2022-12-22T10:50:23.894Z,81.52
2022-12-22T10:55:44.681Z,81.43
2022-12-22T11:01:05.822Z,81.23
2022-12-22T11:06:27.218Z,81.44
2022-12-22T11:11:59.927Z,81.36
2022-12-22T11:17:49.175Z,81.50
2022-12-22T11:23:36.759Z,81.11
2022-12-22T11:29:26.049Z,81.22
2022-12-22T11:35:05.551Z,81.83
2022-12-22T11:40:49.137Z,82.10
2022-12-22T11:46:19.121Z,81.98
2022-12-22T11:52:00.241Z,81.55
2022-12-22T11:57:42.330Z,81.33
2022-12-22T12:03:35.770Z,81.33
2022-12-22T12:09:11.985Z,81.68
2022-12-22T12:14:58.658Z,81.50
2022-12-22T12:20:36.068Z,81.51
2022-12-22T12:26:20.060Z,83.54
2022-12-22T12:32:02.891Z,81.44
2022-12-22T12:37:33.415Z,81.00
2022-12-22T12:42:55.246Z,81.12
2022-12-22T12:48:40.083Z,81.17
2022-12-22T12:54:29.027Z,81.09
2022-12-22T12:59:52.658Z,81.21
2022-12-22T13:05:27.833Z,81.28
2022-12-22T13:10:54.943Z,81.28
2022-12-22T13:16:15.640Z,81.17
2022-12-22T13:21:52.874Z,81.02
2022-12-22T13:27:15.128Z,81.26
2022-12-22T13:32:36.230Z,81.27
2022-12-22T13:37:57.622Z,81.19
2022-12-22T13:43:20.807Z,81.25
2022-12-22T13:48:48.868Z,81.54
2022-12-22T13:54:23.333Z,80.90
2022-12-22T13:59:47.522Z,81.16
2022-12-22T14:05:12.271Z,80.95
2022-12-22T14:10:44.831Z,81.06
2022-12-22T14:16:06.246Z,80.80
2022-12-22T14:21:27.341Z,80.84
2022-12-22T14:26:48.930Z,80.79
2022-12-22T14:32:12.667Z,80.81
2022-12-22T14:37:33.505Z,80.79
2022-12-22T14:42:54.648Z,80.64
2022-12-22T14:48:26.004Z,80.58
2022-12-22T14:53:52.242Z,80.82
2022-12-22T14:59:27.076Z,80.51
2022-12-22T15:04:47.870Z,80.60
2022-12-22T15:10:17.219Z,80.70
2022-12-22T15:15:38.506Z,80.37
2022-12-22T15:20:59.154Z,80.47
2022-12-22T15:26:20.124Z,80.68
2022-12-22T15:31:42.774Z,80.76
2022-12-22T15:37:03.575Z,80.71
2022-12-22T15:42:24.230Z,80.69
2022-12-22T15:47:48.856Z,80.58
2022-12-22T15:53:17.394Z,80.56
2022-12-22T15:58:38.189Z,83.60
2022-12-22T16:03:58.937Z,80.54
2022-12-22T16:09:38.209Z,80.16
2022-12-22T16:15:01.102Z,80.27
2022-12-22T16:20:22.114Z,80.44
2022-12-22T16:25:45.202Z,80.60
2022-12-22T16:31:16.329Z,80.31
2022-12-22T16:36:37.381Z,80.55
2022-12-22T16:42:00.514Z,80.80
2022-12-22T16:47:26.693Z,81.61
2022-12-22T16:52:48.282Z,80.87
2022-12-22T16:58:13.823Z,80.82
2022-12-22T17:03:37.746Z,80.96
2022-12-22T17:08:58.603Z,80.85
2022-12-22T17:14:33.058Z,81.08
2022-12-22T17:19:54.220Z,80.97
2022-12-22T17:25:26.107Z,81.17
2022-12-22T17:30:47.354Z,81.19
2022-12-22T17:36:18.612Z,81.29
2022-12-22T17:41:39.985Z,81.29
2022-12-22T17:47:01.036Z,81.37
2022-12-22T17:52:24.247Z,81.12
2022-12-22T17:57:44.824Z,81.72
2022-12-22T18:03:05.933Z,81.62
2022-12-22T18:08:26.889Z,81.50
2022-12-22T18:13:48.121Z,81.84
2022-12-22T18:19:09.077Z,81.55
2022-12-22T18:24:29.749Z,81.82
2022-12-22T18:29:50.819Z,81.77
2022-12-22T18:35:11.834Z,81.89
2022-12-22T18:40:39.049Z,82.01
2022-12-22T18:45:59.798Z,81.83
2022-12-22T18:51:24.571Z,81.94
2022-12-22T18:56:45.367Z,81.78
2022-12-22T19:02:27.783Z,81.93
2022-12-22T19:07:49.561Z,81.91
2022-12-22T19:13:21.804Z,82.18
2022-12-22T19:18:43.499Z,81.97
2022-12-22T19:24:04.730Z,81.95
2022-12-22T19:29:25.618Z,82.16
2022-12-22T19:34:46.738Z,82.03
2022-12-22T19:40:08.499Z,81.92
2022-12-22T19:45:35.483Z,81.89
2022-12-22T19:50:56.834Z,82.26
2022-12-22T19:56:36.384Z,82.32
2022-12-22T20:01:59.620Z,81.89
2022-12-22T20:07:24.191Z,81.95
2022-12-22T20:12:47.952Z,82.19
2022-12-22T20:18:20.343Z,82.26
2022-12-22T20:23:41.631Z,82.28
2022-12-22T20:29:03.481Z,82.47
2022-12-22T20:34:24.139Z,82.13
2022-12-22T20:39:45.693Z,81.79
2022-12-22T20:45:06.416Z,82.17
2022-12-22T20:50:30.727Z,82.10
2022-12-22T20:55:51.732Z,82.13
2022-12-22T21:01:14.436Z,82.20
2022-12-22T21:06:38.573Z,82.53
2022-12-22T21:11:59.258Z,82.33
2022-12-22T21:17:19.966Z,82.19
2022-12-22T21:22:40.733Z,82.29
2022-12-22T21:28:02.613Z,81.96
2022-12-22T21:33:23.573Z,82.05
2022-12-22T21:38:44.458Z,82.16
2022-12-22T21:44:05.170Z,81.95
2022-12-22T21:49:28.979Z,81.88
2022-12-22T21:54:49.806Z,81.83
2022-12-22T22:00:16.489Z,81.87
2022-12-22T22:05:39.242Z,81.90
2022-12-22T22:11:00.386Z,81.59
2022-12-22T22:16:21.045Z,81.78
2022-12-22T22:21:41.759Z,81.69
2022-12-22T22:27:02.419Z,81.53
2022-12-22T22:32:23.245Z,81.59
2022-12-22T22:37:45.789Z,82.39
2022-12-22T22:43:06.460Z,81.88
2022-12-22T22:48:27.429Z,82.15
2022-12-22T22:53:48.086Z,81.58
2022-12-22T22:59:11.837Z,81.40
2022-12-22T23:04:32.519Z,81.56
2022-12-22T23:09:53.213Z,81.66
2022-12-22T23:15:13.813Z,81.46
2022-12-22T23:20:35.807Z,81.46
2022-12-22T23:25:57.023Z,81.22
2022-12-22T23:31:18.201Z,81.27
2022-12-22T23:36:39.257Z,80.80
2022-12-22T23:42:00.083Z,80.88
2022-12-22T23:47:21.093Z,80.79
2022-12-22T23:52:47.277Z,81.05
2022-12-22T23:58:10.646Z,80.81
